createdAt,value
2022-12-18T00:02:24.674Z,-4.61
2022-12-18T00:04:58.211Z,-4.60
2022-12-18T00:07:29.166Z,-4.56
2022-12-18T00:09:58.984Z,-4.68
2022-12-18T00:12:30.305Z,-4.52
2022-12-18T00:15:02.304Z,-4.89
2022-12-18T00:17:42.460Z,-4.51
2022-12-18T00:20:22.779Z,-4.48
2022-12-18T00:22:55.807Z,-4.65
2022-12-18T00:25:29.712Z,-4.51
2022-12-18T00:28:05.716Z,-4.53
2022-12-18T00:30:35.583Z,-4.60
2022-12-18T00:33:09.733Z,-4.64
2022-12-18T00:35:43.175Z,-4.55
2022-12-18T00:38:16.759Z,-4.53
2022-12-18T00:40:52.761Z,-4.50
2022-12-18T00:43:22.022Z,-4.48
2022-12-18T00:45:53.936Z,-4.50
2022-12-18T00:48:26.316Z,-4.53
2022-12-18T00:51:05.091Z,-4.50
2022-12-18T00:53:36.301Z,-4.66
2022-12-18T00:56:06.595Z,-4.65
2022-12-18T00:58:40.724Z,-4.68
2022-12-18T01:01:12.105Z,-4.76
2022-12-18T01:03:46.220Z,-4.80
2022-12-18T01:06:19.635Z,-4.82
2022-12-18T01:08:50.089Z,-4.82
2022-12-18T01:11:23.140Z,-4.75
2022-12-18T01:13:53.078Z,-4.86
2022-12-18T01:16:26.440Z,-4.71
2022-12-18T01:18:57.379Z,-4.80
2022-12-18T01:21:29.759Z,-4.83
2022-12-18T01:24:01.083Z,-4.95
2022-12-18T01:26:31.380Z,-5.03
2022-12-18T01:29:01.805Z,-5.16
2022-12-18T01:31:35.571Z,-5.16
2022-12-18T01:34:06.896Z,-5.21
2022-12-18T01:36:42.540Z,-5.27
2022-12-18T01:39:16.097Z,-5.22
2022-12-18T01:41:58.735Z,-5.33
2022-12-18T01:45:04.330Z,-5.32
2022-12-18T01:47:40.095Z,-5.40
2022-12-18T01:50:14.444Z,-5.24
2022-12-18T01:52:50.657Z,-5.21
2022-12-18T01:55:22.897Z,-5.50
2022-12-18T01:57:56.164Z,-5.18
2022-12-18T02:00:27.495Z,-5.03
2022-12-18T02:02:58.164Z,-4.94
2022-12-18T02:05:38.362Z,-4.91
2022-12-18T02:08:17.527Z,-4.89
2022-12-18T02:10:57.112Z,-4.99
2022-12-18T02:13:35.122Z,-4.96
2022-12-18T02:16:12.519Z,-4.89
2022-12-18T02:18:49.023Z,-5.00
2022-12-18T02:21:31.452Z,-4.99
2022-12-18T02:24:17.472Z,-5.09
2022-12-18T02:26:54.098Z,-5.26
2022-12-18T02:29:29.944Z,-5.35
2022-12-18T02:32:03.002Z,-5.44
2022-12-18T02:34:36.623Z,-5.44
2022-12-18T02:37:10.883Z,-5.43
2022-12-18T02:39:44.125Z,-5.55
2022-12-18T02:42:20.032Z,-5.64
2022-12-18T02:44:54.341Z,-5.62
2022-12-18T02:47:30.929Z,-5.66
2022-12-18T02:50:11.402Z,-5.68
2022-12-18T02:52:49.634Z,-5.90
2022-12-18T02:55:31.184Z,-5.75
2022-12-18T02:58:16.443Z,-5.77
2022-12-18T03:00:54.272Z,-5.70
2022-12-18T03:03:31.274Z,-5.72
2022-12-18T03:06:05.569Z,-5.89
2022-12-18T03:08:41.166Z,-5.69
2022-12-18T03:11:13.253Z,-5.66
2022-12-18T03:13:51.575Z,-5.62
2022-12-18T03:16:26.339Z,-5.61
2022-12-18T03:19:01.666Z,-5.66
2022-12-18T03:21:36.607Z,-5.82
2022-12-18T03:24:09.822Z,-5.82
2022-12-18T03:26:42.923Z,-5.88
2022-12-18T03:29:21.548Z,-5.78
2022-12-18T03:31:57.152Z,-5.87
2022-12-18T03:34:32.410Z,-5.90
2022-12-18T03:37:05.958Z,-5.84
2022-12-18T03:39:36.649Z,-5.87
2022-12-18T03:42:14.526Z,-5.83
2022-12-18T03:44:59.760Z,-5.98
2022-12-18T03:47:34.410Z,-5.85
2022-12-18T03:50:12.981Z,-5.88
2022-12-18T03:52:51.008Z,-5.90
2022-12-18T03:55:23.472Z,-5.83
2022-12-18T03:58:01.306Z,-5.88
2022-12-18T04:00:41.672Z,-5.89
2022-12-18T04:03:14.152Z,-6.20
2022-12-18T04:05:50.185Z,-5.84
2022-12-18T04:08:22.783Z,-5.82
2022-12-18T04:11:03.168Z,-5.90
2022-12-18T04:13:38.556Z,-6.11
2022-12-18T04:16:14.909Z,-5.93
2022-12-18T04:18:46.921Z,-6.01
2022-12-18T04:21:18.287Z,-5.94
2022-12-18T04:23:50.409Z,-6.00
2022-12-18T04:26:22.919Z,-6.01
2022-12-18T04:29:19.019Z,-6.16
2022-12-18T04:31:51.991Z,-6.25
2022-12-18T04:34:22.492Z,-6.15
2022-12-18T04:36:55.806Z,-6.12
2022-12-18T04:39:26.680Z,-6.03
2022-12-18T04:41:59.370Z,-6.29
2022-12-18T04:44:29.090Z,-6.05
2022-12-18T04:47:01.476Z,-5.95
2022-12-18T04:49:31.241Z,-5.97
2022-12-18T04:52:01.089Z,-5.98
2022-12-18T04:54:31.612Z,-6.05
2022-12-18T04:57:01.412Z,-6.10
2022-12-18T04:59:31.475Z,-6.22
2022-12-18T05:02:03.886Z,-6.14
2022-12-18T05:04:33.760Z,-6.31
2022-12-18T05:07:03.675Z,-6.25
2022-12-18T05:09:33.643Z,-6.33
2022-12-18T05:12:03.380Z,-6.29
2022-12-18T05:14:33.161Z,-6.40
2022-12-18T05:17:05.610Z,-6.17
2022-12-18T05:19:35.543Z,-6.24
2022-12-18T05:22:05.294Z,-6.08
2022-12-18T05:24:35.107Z,-6.00
2022-12-18T05:27:04.915Z,-6.04
2022-12-18T05:29:34.776Z,-6.06
2022-12-18T05:32:07.642Z,-6.12
2022-12-18T05:34:37.422Z,-6.04
2022-12-18T05:37:07.121Z,-5.88
2022-12-18T05:39:36.878Z,-5.85
2022-12-18T05:42:06.842Z,-5.84
2022-12-18T05:44:36.645Z,-5.70
2022-12-18T05:47:08.987Z,-5.58
2022-12-18T05:49:38.848Z,-5.51
2022-12-18T05:52:08.699Z,-5.42
2022-12-18T05:54:38.566Z,-5.60
2022-12-18T05:57:08.371Z,-6.10
2022-12-18T05:59:38.451Z,-5.46
2022-12-18T06:02:10.956Z,-5.53
2022-12-18T06:04:40.793Z,-5.72
2022-12-18T06:07:10.587Z,-5.59
2022-12-18T06:09:40.387Z,-5.53
2022-12-18T06:12:10.724Z,-5.46
2022-12-18T06:14:40.499Z,-5.48
2022-12-18T06:17:12.882Z,-5.43
2022-12-18T06:19:42.626Z,-5.44
2022-12-18T06:22:12.376Z,-5.42
2022-12-18T06:24:42.113Z,-5.40
2022-12-18T06:27:11.868Z,-5.36
2022-12-18T06:29:41.642Z,-5.39
2022-12-18T06:32:14.027Z,-5.25
2022-12-18T06:34:44.736Z,-5.28
2022-12-18T06:37:14.523Z,-5.31
2022-12-18T06:39:44.327Z,-5.28
2022-12-18T06:42:14.074Z,-5.31
2022-12-18T06:44:43.841Z,-5.24
2022-12-18T06:47:16.220Z,-5.58
2022-12-18T06:49:46.636Z,-5.32
2022-12-18T06:52:16.397Z,-5.30
2022-12-18T06:54:46.158Z,-5.43
2022-12-18T06:57:15.918Z,-5.28
2022-12-18T06:59:45.917Z,-5.62
2022-12-18T07:02:18.626Z,-5.29
2022-12-18T07:04:48.468Z,-5.30
2022-12-18T07:07:18.234Z,-5.50
2022-12-18T07:09:48.031Z,-5.37
2022-12-18T07:12:17.801Z,-5.32
2022-12-18T07:14:47.975Z,-5.47
2022-12-18T07:17:20.368Z,-5.25
2022-12-18T07:19:50.155Z,-5.32
2022-12-18T07:22:19.939Z,-5.30
2022-12-18T07:24:50.056Z,-5.69
2022-12-18T07:27:19.847Z,-5.34
2022-12-18T07:29:49.595Z,-5.34
2022-12-18T07:32:24.065Z,-5.25
2022-12-18T07:34:54.054Z,-5.18
2022-12-18T07:37:27.851Z,-5.40
2022-12-18T07:39:58.057Z,-5.28
2022-12-18T07:42:35.889Z,-5.26
2022-12-18T07:45:06.983Z,-5.32
2022-12-18T07:47:42.255Z,-5.44
2022-12-18T07:50:12.538Z,-5.60
2022-12-18T07:52:47.696Z,-5.77
2022-12-18T07:55:21.744Z,-5.70
2022-12-18T07:57:56.417Z,-6.09
2022-12-18T08:00:32.784Z,-5.46
2022-12-18T08:03:08.388Z,-5.74
2022-12-18T08:05:38.291Z,-5.42
2022-12-18T08:08:08.550Z,-5.56
2022-12-18T08:10:42.370Z,-5.56
2022-12-18T08:13:12.276Z,-5.50
2022-12-18T08:15:42.033Z,-5.39
2022-12-18T08:18:18.470Z,-5.28
2022-12-18T08:20:48.389Z,-5.24
2022-12-18T08:23:26.494Z,-5.14
2022-12-18T08:25:58.428Z,-5.04
2022-12-18T08:28:28.303Z,-4.88
2022-12-18T08:30:58.295Z,-5.24
2022-12-18T08:33:36.044Z,-4.85
2022-12-18T08:36:06.904Z,-4.78
2022-12-18T08:38:39.846Z,-4.91
2022-12-18T08:41:16.474Z,-4.73
2022-12-18T08:44:02.655Z,-4.85
2022-12-18T08:46:37.861Z,-5.03
2022-12-18T08:49:13.918Z,-4.84
2022-12-18T08:51:44.285Z,-4.68
2022-12-18T08:54:16.514Z,-4.50
2022-12-18T08:56:50.624Z,-4.40
2022-12-18T08:59:20.781Z,-4.37
2022-12-18T09:01:51.867Z,-4.28
2022-12-18T09:04:26.600Z,-4.34
2022-12-18T09:07:00.173Z,-4.37
2022-12-18T09:09:29.948Z,-3.99
2022-12-18T09:12:01.127Z,-3.98
2022-12-18T09:14:39.226Z,-3.77
2022-12-18T09:17:09.062Z,-3.75
2022-12-18T09:19:41.516Z,-3.64
2022-12-18T09:22:14.791Z,-3.51
2022-12-18T09:24:47.749Z,-3.40
2022-12-18T09:27:20.744Z,-3.26
2022-12-18T09:29:52.515Z,-3.11
2022-12-18T09:32:23.407Z,-3.02
2022-12-18T09:34:59.747Z,-2.83
2022-12-18T09:37:32.786Z,-2.79
2022-12-18T09:40:02.622Z,-2.76
2022-12-18T09:42:36.923Z,-2.42
2022-12-18T09:45:08.677Z,-2.30
2022-12-18T09:47:41.469Z,-2.19
2022-12-18T09:50:28.165Z,-2.05
2022-12-18T09:53:08.794Z,-1.95
2022-12-18T09:55:43.526Z,-1.82
2022-12-18T09:58:20.668Z,-1.68
2022-12-18T10:00:50.856Z,-1.68
2022-12-18T10:03:21.753Z,-1.61
2022-12-18T10:06:02.872Z,-1.33
2022-12-18T10:08:45.862Z,-1.23
2022-12-18T10:11:29.424Z,-1.15
2022-12-18T10:14:12.719Z,-0.95
2022-12-18T10:16:56.918Z,-0.82
2022-12-18T10:19:41.026Z,-0.74
2022-12-18T10:22:25.680Z,-0.78
2022-12-18T10:25:05.493Z,-0.64
2022-12-18T10:27:36.672Z,-0.67
2022-12-18T10:30:16.673Z,-0.41
2022-12-18T10:32:46.720Z,-0.40
2022-12-18T10:35:22.801Z,-0.22
2022-12-18T10:38:10.311Z,-0.11
2022-12-18T10:40:53.773Z,-0.03
2022-12-18T10:43:27.562Z,0.03
2022-12-18T10:46:22.495Z,0.02
2022-12-18T10:48:58.690Z,0.22
2022-12-18T10:51:32.467Z,0.32
2022-12-18T10:54:08.682Z,0.37
2022-12-18T10:56:40.652Z,0.38
2022-12-18T10:59:15.906Z,0.52
2022-12-18T11:01:57.063Z,0.57
2022-12-18T11:04:28.786Z,0.70
2022-12-18T11:07:04.309Z,0.77
2022-12-18T11:09:38.790Z,0.79
2022-12-18T11:12:19.525Z,0.56
2022-12-18T11:14:51.900Z,0.74
2022-12-18T11:17:26.280Z,0.77
2022-12-18T11:20:04.865Z,0.77
2022-12-18T11:22:37.539Z,0.79
2022-12-18T11:25:32.271Z,0.82
2022-12-18T11:28:09.815Z,0.87
2022-12-18T11:30:41.256Z,0.88
2022-12-18T11:33:18.512Z,0.92
2022-12-18T11:35:54.538Z,0.85
2022-12-18T11:38:30.461Z,1.01
2022-12-18T11:41:06.742Z,0.98
2022-12-18T11:43:45.037Z,0.90
2022-12-18T11:46:19.971Z,0.76
2022-12-18T11:49:03.048Z,0.83
2022-12-18T11:51:39.152Z,0.77
2022-12-18T11:54:17.484Z,0.76
2022-12-18T11:56:57.477Z,0.58
2022-12-18T11:59:37.818Z,0.53
2022-12-18T12:02:33.670Z,0.68
2022-12-18T12:05:24.382Z,0.47
2022-12-18T12:08:00.844Z,0.54
2022-12-18T12:10:45.815Z,0.58
2022-12-18T12:13:45.478Z,0.04
2022-12-18T12:16:25.213Z,0.39
2022-12-18T12:19:07.375Z,0.27
2022-12-18T12:21:44.324Z,0.38
2022-12-18T12:24:30.595Z,0.30
2022-12-18T12:27:13.353Z,0.31
2022-12-18T12:30:02.101Z,0.17
2022-12-18T12:32:49.360Z,0.21
2022-12-18T12:35:31.738Z,0.26
2022-12-18T12:38:11.958Z,0.31
2022-12-18T12:40:55.333Z,0.19
2022-12-18T12:43:35.127Z,0.43
2022-12-18T12:46:13.931Z,0.33
2022-12-18T12:48:49.193Z,0.36
2022-12-18T12:51:23.330Z,0.45
2022-12-18T12:53:53.432Z,0.41
2022-12-18T12:56:24.992Z,0.61
2022-12-18T12:59:05.972Z,0.56
2022-12-18T13:01:51.418Z,0.69
2022-12-18T13:04:31.566Z,0.70
2022-12-18T13:07:09.019Z,0.31
2022-12-18T13:10:17.482Z,0.67
2022-12-18T13:12:57.883Z,0.57
2022-12-18T13:15:36.856Z,0.67
2022-12-18T13:18:30.111Z,0.71
2022-12-18T13:21:11.899Z,0.78
2022-12-18T13:23:42.286Z,0.75
2022-12-18T13:26:36.923Z,0.84
2022-12-18T13:29:09.804Z,0.87
2022-12-18T13:32:09.615Z,0.69
2022-12-18T13:34:41.993Z,0.94
2022-12-18T13:37:46.039Z,1.00
2022-12-18T13:41:01.074Z,1.02
2022-12-18T13:43:34.916Z,0.98
2022-12-18T13:46:20.884Z,0.99
2022-12-18T13:48:55.921Z,0.95
2022-12-18T13:51:29.551Z,0.99
2022-12-18T13:54:02.692Z,0.95
2022-12-18T13:59:38.446Z,1.07
2022-12-18T14:02:18.087Z,1.06
2022-12-18T14:04:50.036Z,1.09
2022-12-18T14:07:24.651Z,1.15
2022-12-18T14:10:06.439Z,1.14
2022-12-18T14:13:03.119Z,1.11
2022-12-18T14:15:38.530Z,1.08
2022-12-18T14:18:23.492Z,1.02
2022-12-18T14:20:55.056Z,0.94
2022-12-18T14:23:40.235Z,0.92
2022-12-18T14:26:26.412Z,0.94
2022-12-18T14:29:02.092Z,0.94
2022-12-18T14:31:35.812Z,0.93
2022-12-18T14:34:05.702Z,0.93
2022-12-18T14:36:35.559Z,0.99
2022-12-18T14:39:08.990Z,1.10
2022-12-18T14:41:38.869Z,1.10
2022-12-18T14:44:15.060Z,1.27
2022-12-18T14:46:47.489Z,1.37
2022-12-18T14:49:25.408Z,1.41
2022-12-18T14:51:58.675Z,1.38
2022-12-18T14:54:33.315Z,1.36
2022-12-18T14:57:09.715Z,1.21
2022-12-18T14:59:40.476Z,0.83
2022-12-18T15:02:22.381Z,1.16
2022-12-18T15:05:09.818Z,1.15
2022-12-18T15:07:47.327Z,1.04
2022-12-18T15:10:23.386Z,1.07
2022-12-18T15:13:09.520Z,1.07
2022-12-18T15:15:50.523Z,1.00
2022-12-18T15:18:22.730Z,1.02
2022-12-18T15:20:58.007Z,0.94
2022-12-18T15:23:30.283Z,0.90
2022-12-18T15:26:04.406Z,0.55
2022-12-18T15:28:39.060Z,0.40
2022-12-18T15:31:26.205Z,0.64
2022-12-18T15:34:21.924Z,0.45
2022-12-18T15:36:54.397Z,0.60
2022-12-18T15:39:24.626Z,0.24
2022-12-18T15:42:11.644Z,0.70
2022-12-18T15:44:41.765Z,0.41
2022-12-18T15:47:15.932Z,0.58
2022-12-18T15:49:46.978Z,0.51
2022-12-18T15:52:27.125Z,0.55
2022-12-18T15:55:09.692Z,0.34
2022-12-18T15:57:42.060Z,0.25
2022-12-18T16:00:16.360Z,0.27
2022-12-18T16:02:48.199Z,0.48
2022-12-18T16:05:21.194Z,0.53
2022-12-18T16:07:51.497Z,0.35
2022-12-18T16:10:21.467Z,0.18
2022-12-18T16:12:54.207Z,0.32
2022-12-18T16:15:24.960Z,0.34
2022-12-18T16:17:55.523Z,0.51
2022-12-18T16:20:26.475Z,0.29
2022-12-18T16:22:58.294Z,0.88
2022-12-18T16:25:30.310Z,1.00
2022-12-18T16:28:04.760Z,0.99
2022-12-18T16:30:40.587Z,0.87
2022-12-18T16:33:13.809Z,1.00
2022-12-18T16:35:44.627Z,0.90
2022-12-18T16:38:14.593Z,0.91
2022-12-18T16:41:05.589Z,0.93
2022-12-18T16:43:41.604Z,0.93
2022-12-18T16:46:12.906Z,0.53
2022-12-18T16:48:42.723Z,0.92
2022-12-18T16:51:12.679Z,1.05
2022-12-18T16:53:44.302Z,0.98
2022-12-18T16:56:14.832Z,1.12
2022-12-18T16:58:47.291Z,1.09
2022-12-18T17:01:20.940Z,1.16
2022-12-18T17:03:56.722Z,1.18
2022-12-18T17:06:27.507Z,1.06
2022-12-18T17:08:58.900Z,1.17
2022-12-18T17:11:30.751Z,1.03
2022-12-18T17:14:08.448Z,1.18
2022-12-18T17:16:42.291Z,1.23
2022-12-18T17:19:17.109Z,1.17
2022-12-18T17:21:48.289Z,1.31
2022-12-18T17:24:18.453Z,1.31
2022-12-18T17:26:51.412Z,1.36
2022-12-18T17:29:25.893Z,1.50
2022-12-18T17:31:56.308Z,1.51
2022-12-18T17:34:31.093Z,1.46
2022-12-18T17:37:04.912Z,1.73
2022-12-18T17:39:34.782Z,1.62
2022-12-18T17:42:05.300Z,1.69
2022-12-18T17:44:38.229Z,1.80
2022-12-18T17:47:10.155Z,1.78
2022-12-18T17:49:40.126Z,1.72
2022-12-18T17:52:10.354Z,1.64
2022-12-18T17:54:42.353Z,1.44
2022-12-18T17:57:12.358Z,1.56
2022-12-18T17:59:48.469Z,1.79
2022-12-18T18:02:18.349Z,1.79
2022-12-18T18:04:49.200Z,1.73
2022-12-18T18:07:19.111Z,1.83
2022-12-18T18:09:48.923Z,1.89
2022-12-18T18:12:31.243Z,1.99
2022-12-18T18:15:03.779Z,1.97
2022-12-18T18:17:35.670Z,2.00
2022-12-18T18:20:07.803Z,1.82
2022-12-18T18:22:38.818Z,2.10
2022-12-18T18:25:12.456Z,2.16
2022-12-18T18:27:44.129Z,2.10
2022-12-18T18:30:19.548Z,2.09
2022-12-18T18:32:56.596Z,2.34
2022-12-18T18:35:53.400Z,2.21
2022-12-18T18:38:24.027Z,2.24
2022-12-18T18:41:01.070Z,2.26
2022-12-18T18:43:31.825Z,2.01
2022-12-18T18:46:06.184Z,2.16
2022-12-18T18:48:41.752Z,2.19
2022-12-18T18:51:20.852Z,2.24
2022-12-18T18:53:53.981Z,2.15
2022-12-18T18:59:18.629Z,2.08
2022-12-18T19:01:52.806Z,2.18
2022-12-18T19:04:23.845Z,2.16
2022-12-18T19:06:53.759Z,2.12
2022-12-18T19:09:24.523Z,2.50
2022-12-18T19:12:07.850Z,2.51
2022-12-18T19:14:37.785Z,2.54
2022-12-18T19:17:10.380Z,2.28
2022-12-18T19:19:42.968Z,2.26
2022-12-18T19:22:14.196Z,2.07
2022-12-18T19:24:44.080Z,2.17
2022-12-18T19:27:13.928Z,2.37
2022-12-18T19:29:46.858Z,2.21
2022-12-18T19:32:20.321Z,2.23
2022-12-18T19:34:50.248Z,2.21
2022-12-18T19:37:20.476Z,2.22
2022-12-18T19:39:50.326Z,2.28
2022-12-18T19:42:29.280Z,2.12
2022-12-18T19:45:05.011Z,2.40
2022-12-18T19:47:38.415Z,1.97
2022-12-18T19:50:14.849Z,2.05
2022-12-18T19:52:44.842Z,1.81
2022-12-18T19:55:18.131Z,1.63
2022-12-18T19:57:48.874Z,1.51
2022-12-18T20:00:21.134Z,1.22
2022-12-18T20:03:00.114Z,1.10
2022-12-18T20:05:33.786Z,1.01
2022-12-18T20:08:05.623Z,1.28
2022-12-18T20:10:36.737Z,1.07
2022-12-18T20:13:07.554Z,1.17
2022-12-18T20:15:40.509Z,1.19
2022-12-18T20:18:24.300Z,1.22
2022-12-18T20:20:55.193Z,1.27
2022-12-18T20:23:27.811Z,1.49
2022-12-18T20:25:58.622Z,1.44
2022-12-18T20:28:28.898Z,1.38
2022-12-18T20:31:03.006Z,1.25
2022-12-18T20:33:35.579Z,1.17
2022-12-18T20:36:09.520Z,1.41
2022-12-18T20:38:40.804Z,1.57
2022-12-18T20:41:14.321Z,1.59
2022-12-18T20:43:47.979Z,1.37
2022-12-18T20:46:19.600Z,1.42
2022-12-18T20:48:52.014Z,1.43
2022-12-18T20:51:26.799Z,1.38
2022-12-18T20:53:59.708Z,1.38
2022-12-18T20:56:33.351Z,1.53
2022-12-18T20:59:05.203Z,1.55
2022-12-18T21:01:36.143Z,1.51
2022-12-18T21:04:12.479Z,1.50
2022-12-18T21:06:49.382Z,1.41
2022-12-18T21:09:21.988Z,1.50
2022-12-18T21:12:04.601Z,1.47
2022-12-18T21:14:35.403Z,1.48
2022-12-18T21:17:05.286Z,1.57
2022-12-18T21:19:39.199Z,1.61
2022-12-18T21:22:16.050Z,1.70
2022-12-18T21:24:45.829Z,1.77
2022-12-18T21:27:17.618Z,1.56
2022-12-18T21:29:48.105Z,1.61
2022-12-18T21:32:20.877Z,1.71
2022-12-18T21:34:54.684Z,1.75
2022-12-18T21:37:28.159Z,1.56
2022-12-18T21:39:58.018Z,1.35
2022-12-18T21:42:40.485Z,1.52
2022-12-18T21:45:14.978Z,1.55
2022-12-18T21:47:44.711Z,1.44
2022-12-18T21:50:20.502Z,1.67
2022-12-18T21:52:50.423Z,1.75
2022-12-18T21:55:20.313Z,1.79
2022-12-18T21:57:50.316Z,1.62
2022-12-18T22:00:21.024Z,1.53
2022-12-18T22:03:15.554Z,1.45
2022-12-18T22:05:45.217Z,1.51
2022-12-18T22:08:15.192Z,1.56
2022-12-18T22:10:52.627Z,1.52
2022-12-18T22:13:28.596Z,1.51
2022-12-18T22:16:04.728Z,1.58
2022-12-18T22:18:34.680Z,1.52
2022-12-18T22:21:10.206Z,1.51
2022-12-18T22:23:39.960Z,1.48
2022-12-18T22:26:10.818Z,1.28
2022-12-18T22:28:53.019Z,1.61
2022-12-18T22:31:22.939Z,1.45
2022-12-18T22:33:53.874Z,1.39
2022-12-18T22:36:26.656Z,1.47
2022-12-18T22:38:56.449Z,1.40
2022-12-18T22:41:26.237Z,1.35
2022-12-18T22:43:58.649Z,1.42
2022-12-18T22:46:29.392Z,1.33
2022-12-18T22:48:59.151Z,1.38
2022-12-18T22:51:31.553Z,1.46
2022-12-18T22:54:01.500Z,1.58
2022-12-18T22:56:31.876Z,1.68
2022-12-18T22:59:01.803Z,1.62
2022-12-18T23:01:33.045Z,1.61
2022-12-18T23:04:05.079Z,1.43
2022-12-18T23:06:37.446Z,1.50
2022-12-18T23:09:07.192Z,1.54
2022-12-18T23:11:36.935Z,1.49
2022-12-18T23:14:06.703Z,1.45
2022-12-18T23:16:36.521Z,1.55
2022-12-18T23:19:06.804Z,1.73
2022-12-18T23:21:39.870Z,1.79
2022-12-18T23:24:10.593Z,1.68
2022-12-18T23:26:40.722Z,1.81
2022-12-18T23:29:10.905Z,1.74
2022-12-18T23:31:42.581Z,1.79
2022-12-18T23:34:15.579Z,1.93
2022-12-18T23:36:49.970Z,1.92
2022-12-18T23:39:29.412Z,1.78
2022-12-18T23:42:00.393Z,1.68
2022-12-18T23:44:30.346Z,1.86
2022-12-18T23:47:00.152Z,1.75
2022-12-18T23:49:29.936Z,1.86
2022-12-18T23:52:02.423Z,1.89
2022-12-18T23:54:33.283Z,1.82
2022-12-18T23:57:03.817Z,1.76
2022-12-18T23:59:33.885Z,1.79
